AirNav   Air Wisconsin pilot careers
 
 1138 users online  

2MO3 Independence Regional Health Center Heliport
Independence, Missouri, USA

GOING TO INDEPENDENCE?


FAA INFORMATION EFFECTIVE 18 JULY 2019

Location

FAA Identifier: 2MO3
Lat/Long: 39-05-38.9100N / 094-26-06.4500W
39-05.648500N / 094-26.107500W
39.0941417 / -94.4351250
(estimated)
Elevation: 952 ft. / 290 m (estimated)
Variation: 05E (1990)
Time zone: UTC -5 (UTC -6 during Standard Time)
Zip code: 64050

Heliport Operations

Heliport use: Private use, MEDICAL USE.
Activation date: 03/1993
Control tower: no
ARTCC: KANSAS CITY CENTER
FSS: COLUMBIA FLIGHT SERVICE STATION
Attendance: CONTINUOUS
Wind indicator: yes
Segmented circle: no

Heliport Communications

WX ASOS at MKC (8 nm W): PHONE 816-329-2843
WX ASOS at LXT (9 nm S): 124.175 (816-347-9807)
WX AWOS-3 at GPH (15 nm N): 120.275 (816-407-3399)
WX ASOS at MCI (18 nm NW): PHONE 816-329-2808

Nearby radio navigation aids

VOR radial/distance  VOR name  Freq  Var
ANXr263/14.3NAPOLEON VORTAC114.0007E
MCIr124/18.1KANSAS CITY VORTAC113.2505E

Heliport Services

Runway Information

Helipad H1

Dimensions: 30 x 30 ft. / 9 x 9 m
Surface: asphalt
Latitude: 39-05.648500N
Longitude: 094-26.107500W
Elevation: 952.0 ft.
Traffic pattern: leftleft

Heliport Ownership and Management from official FAA records

Ownership: Privately-owned
Owner: INDEPENDENCE REGIONAL HEALTH
1509 W. TRUMAN ROAD
INDEPENDENCE, MO 64050
Phone 816-836-8100
Manager: EDDIE JORGENSON
1509 W. TRUMAN ROAD
INDEPENDENCE, MO 64050
Phone 816-836-8100

Additional Remarks

OWNER DESIRES HELIPORT NOT BE CHARTED.
FOR CD CTC KANSAS CITY APCH AT 816-329-2710.

Instrument Procedures

There are no published instrument procedures at 2MO3.

Some nearby airports with instrument procedures:

KMKC - Charles B Wheeler Downtown Airport (8 nm W)
KLXT - Lee's Summit Municipal Airport (9 nm S)
3GV - East Kansas City Airport (11 nm SE)
KGPH - Midwest National Air Center Airport (15 nm N)
KMCI - Kansas City International Airport (18 nm NW)
3EX - Excelsior Springs Memorial Airport (18 nm NE)
 
Loc | Ops | Rwys | IFR | FBO | Links
Com | Nav | Svcs | Stats | Notes

Kansas City Aviation Department
 
Area around 2MO3 (Independence Regional Health Center Heliport)
 
Road maps at: MapQuest Bing Google
 
Aerial photo
No photo
 
Sectional chart

 
Airport distance calculator
Flying to Independence Regional Health Center Heliport? Find the distance to fly.

From to 2MO3

Sunrise and sunset
Times for 19-Jul-2019
 Local
(UTC-5)
 Zulu
(UTC)
Morning civil twilight05:3710:37
Sunrise06:0811:08
Sunset20:4001:40
Evening civil twilight21:1102:11

Current date and time
Zulu (UTC)  20-Jul-2019 00:19:07
Local (UTC-5)  19-Jul-2019 19:19:07
 
METAR
KMKC 
8nm W 
192354Z AUTO 18014G22KT 10SM CLR 35/23 A2979 RMK AO2 SLP077 T03500233 10367 20344 55005
KLXT 
8nm SE 
192353Z AUTO 20017G24KT 10SM CLR 34/24 A2982 RMK AO2 PK WND 20027/2314 RAB10E30 SLP087 P0000 60000 T03390239 10356 20328 56009
KGPH 
15nm N 
192335Z AUTO 18010KT 10SM CLR 35/23 A2980 RMK AO2
KMCI 
19nm NW 
192353Z 19015KT 10SM CLR 34/24 A2980 RMK AO2 SLP078 T03390244 10361 20339 55005
TAF
KMKC 
8nm W 
191720Z 1918/2018 19013G22KT P6SM SKC FM200100 19011KT P6SM SKC FM201500 19012G20KT P6SM SKC
KMCI 
19nm NW 
191720Z 1918/2018 19013G22KT P6SM SKC FM200100 19011KT P6SM SKC FM201500 19012G20KT P6SM SKC
NOTAMs
Click for the latest NOTAMs
NOTAMs are issued by the DoD/FAA and will open in a separate window not controlled by AirNav.

 

 
 

Would you like to see your business listed on this page?

 If your business provides an interesting product or service to pilots, flight crews, aircraft, or users of the Independence Regional Health Center Heliport, you should consider listing it here.  To start the listing process, click on the button below
 
Add a business
 

Other Pages about Independence Regional Health Center Heliport

Update a link
 
Copyright © AirNav, LLC. All rights reserved. Privacy Policy  Contact